sensor_id;sensor_type;location;lat;lon;timestamp;P1;durP1;ratioP1;P2;durP2;ratioP2
6259;SDS011;3163;51.516;4.000;2023-08-01T00:01:50;0.87;;;0.70;;
6259;SDS011;3163;51.516;4.000;2023-08-01T00:04:16;0.97;;;0.80;;
6259;SDS011;3163;51.516;4.000;2023-08-01T00:06:42;1.77;;;1.00;;
6259;SDS011;3163;51.516;4.000;2023-08-01T00:09:07;0.47;;;0.40;;
6259;SDS011;3163;51.516;4.000;2023-08-01T00:11:33;1.07;;;1.07;;
6259;SDS011;3163;51.516;4.000;2023-08-01T00:13:58;1.43;;;0.83;;
6259;SDS011;3163;51.516;4.000;2023-08-01T00:16:24;1.23;;;0.60;;
6259;SDS011;3163;51.516;4.000;2023-08-01T00:18:50;1.73;;;0.97;;
6259;SDS011;3163;51.516;4.000;2023-08-01T00:21:15;1.13;;;0.70;;
6259;SDS011;3163;51.516;4.000;2023-08-01T00:23:41;1.83;;;0.90;;
6259;SDS011;3163;51.516;4.000;2023-08-01T00:26:06;0.93;;;0.90;;
6259;SDS011;3163;51.516;4.000;2023-08-01T00:28:32;1.23;;;1.00;;
6259;SDS011;3163;51.516;4.000;2023-08-01T00:31:04;2.30;;;0.90;;
6259;SDS011;3163;51.516;4.000;2023-08-01T00:33:31;0.70;;;0.70;;
6259;SDS011;3163;51.516;4.000;2023-08-01T00:35:57;3.83;;;1.03;;
6259;SDS011;3163;51.516;4.000;2023-08-01T00:38:22;1.60;;;0.70;;
6259;SDS011;3163;51.516;4.000;2023-08-01T00:40:48;1.50;;;0.90;;
6259;SDS011;3163;51.516;4.000;2023-08-01T00:43:15;0.80;;;0.80;;
6259;SDS011;3163;51.516;4.000;2023-08-01T00:45:40;1.17;;;0.97;;
6259;SDS011;3163;51.516;4.000;2023-08-01T00:48:06;1.63;;;1.03;;
6259;SDS011;3163;51.516;4.000;2023-08-01T00:50:33;2.13;;;0.80;;
6259;SDS011;3163;51.516;4.000;2023-08-01T00:52:59;0.97;;;0.73;;
6259;SDS011;3163;51.516;4.000;2023-08-01T00:55:25;1.17;;;0.80;;
6259;SDS011;3163;51.516;4.000;2023-08-01T00:57:52;1.90;;;0.77;;
6259;SDS011;3163;51.516;4.000;2023-08-01T01:00:18;1.60;;;1.10;;
6259;SDS011;3163;51.516;4.000;2023-08-01T01:02:44;1.57;;;1.00;;
6259;SDS011;3163;51.516;4.000;2023-08-01T01:05:09;1.13;;;1.03;;
6259;SDS011;3163;51.516;4.000;2023-08-01T01:07:35;1.47;;;1.10;;
6259;SDS011;3163;51.516;4.000;2023-08-01T01:10:02;3.40;;;0.83;;
6259;SDS011;3163;51.516;4.000;2023-08-01T01:12:28;2.17;;;1.00;;
6259;SDS011;3163;51.516;4.000;2023-08-01T01:14:53;2.40;;;1.27;;
6259;SDS011;3163;51.516;4.000;2023-08-01T01:17:19;0.87;;;0.80;;
6259;SDS011;3163;51.516;4.000;2023-08-01T01:19:44;2.23;;;0.80;;
6259;SDS011;3163;51.516;4.000;2023-08-01T01:22:10;2.20;;;1.20;;
6259;SDS011;3163;51.516;4.000;2023-08-01T01:24:36;1.20;;;1.00;;
6259;SDS011;3163;51.516;4.000;2023-08-01T01:27:04;1.80;;;1.17;;
6259;SDS011;3163;51.516;4.000;2023-08-01T01:29:31;1.13;;;1.00;;
6259;SDS011;3163;51.516;4.000;2023-08-01T01:31:59;2.77;;;1.30;;
6259;SDS011;3163;51.516;4.000;2023-08-01T01:34:26;1.93;;;1.00;;
6259;SDS011;3163;51.516;4.000;2023-08-01T01:36:53;1.10;;;0.97;;
6259;SDS011;3163;51.516;4.000;2023-08-01T01:39:18;2.73;;;1.10;;
6259;SDS011;3163;51.516;4.000;2023-08-01T01:41:44;0.70;;;0.70;;
6259;SDS011;3163;51.516;4.000;2023-08-01T01:44:09;3.70;;;1.30;;
6259;SDS011;3163;51.516;4.000;2023-08-01T01:46:35;1.10;;;1.00;;
6259;SDS011;3163;51.516;4.000;2023-08-01T01:49:01;1.10;;;1.00;;
6259;SDS011;3163;51.516;4.000;2023-08-01T01:51:27;1.30;;;1.20;;
6259;SDS011;3163;51.516;4.000;2023-08-01T01:53:54;3.33;;;1.13;;
6259;SDS011;3163;51.516;4.000;2023-08-01T01:56:19;4.73;;;1.07;;
6259;SDS011;3163;51.516;4.000;2023-08-01T01:58:45;1.17;;;1.02;;
6259;SDS011;3163;51.516;4.000;2023-08-01T02:01:11;1.30;;;1.03;;
6259;SDS011;3163;51.516;4.000;2023-08-01T02:03:36;1.50;;;0.93;;
6259;SDS011;3163;51.516;4.000;2023-08-01T02:06:02;1.37;;;0.90;;
6259;SDS011;3163;51.516;4.000;2023-08-01T02:08:28;2.95;;;1.40;;
6259;SDS011;3163;51.516;4.000;2023-08-01T02:10:54;2.10;;;1.00;;
6259;SDS011;3163;51.516;4.000;2023-08-01T02:13:23;1.83;;;1.10;;
6259;SDS011;3163;51.516;4.000;2023-08-01T02:15:49;3.07;;;0.80;;
6259;SDS011;3163;51.516;4.000;2023-08-01T02:18:15;3.80;;;1.07;;
6259;SDS011;3163;51.516;4.000;2023-08-01T02:20:40;1.60;;;1.10;;
6259;SDS011;3163;51.516;4.000;2023-08-01T02:23:06;2.00;;;1.13;;
6259;SDS011;3163;51.516;4.000;2023-08-01T02:25:32;2.67;;;1.30;;
6259;SDS011;3163;51.516;4.000;2023-08-01T02:27:57;0.90;;;0.80;;
6259;SDS011;3163;51.516;4.000;2023-08-01T02:30:24;3.20;;;1.20;;
6259;SDS011;3163;51.516;4.000;2023-08-01T02:32:50;1.07;;;1.03;;
6259;SDS011;3163;51.516;4.000;2023-08-01T02:35:15;3.23;;;1.30;;
6259;SDS011;3163;51.516;4.000;2023-08-01T02:37:41;1.90;;;1.20;;
6259;SDS011;3163;51.516;4.000;2023-08-01T02:40:08;1.77;;;1.47;;
6259;SDS011;3163;51.516;4.000;2023-08-01T02:42:34;2.07;;;1.50;;
6259;SDS011;3163;51.516;4.000;2023-08-01T02:44:59;3.90;;;1.50;;
6259;SDS011;3163;51.516;4.000;2023-08-01T02:47:25;1.97;;;1.17;;
6259;SDS011;3163;51.516;4.000;2023-08-01T02:49:50;4.17;;;1.50;;
6259;SDS011;3163;51.516;4.000;2023-08-01T02:52:16;1.70;;;1.20;;
6259;SDS011;3163;51.516;4.000;2023-08-01T02:54:42;1.30;;;1.17;;
6259;SDS011;3163;51.516;4.000;2023-08-01T02:57:07;2.93;;;1.10;;
6259;SDS011;3163;51.516;4.000;2023-08-01T02:59:33;2.20;;;1.30;;
6259;SDS011;3163;51.516;4.000;2023-08-01T03:01:59;5.30;;;1.50;;
6259;SDS011;3163;51.516;4.000;2023-08-01T03:04:24;1.37;;;1.10;;
6259;SDS011;3163;51.516;4.000;2023-08-01T03:06:50;1.10;;;0.97;;
6259;SDS011;3163;51.516;4.000;2023-08-01T03:09:16;2.83;;;1.40;;
6259;SDS011;3163;51.516;4.000;2023-08-01T03:11:41;4.07;;;1.57;;
6259;SDS011;3163;51.516;4.000;2023-08-01T03:14:07;1.50;;;1.13;;
6259;SDS011;3163;51.516;4.000;2023-08-01T03:16:32;1.60;;;1.50;;
6259;SDS011;3163;51.516;4.000;2023-08-01T03:18:58;3.37;;;1.37;;
6259;SDS011;3163;51.516;4.000;2023-08-01T03:21:29;1.60;;;1.50;;
6259;SDS011;3163;51.516;4.000;2023-08-01T03:23:58;2.63;;;1.00;;
6259;SDS011;3163;51.516;4.000;2023-08-01T03:26:25;1.63;;;1.00;;
6259;SDS011;3163;51.516;4.000;2023-08-01T03:28:53;1.33;;;1.07;;
6259;SDS011;3163;51.516;4.000;2023-08-01T03:31:20;2.83;;;1.98;;
6259;SDS011;3163;51.516;4.000;2023-08-01T03:33:46;3.67;;;1.60;;
6259;SDS011;3163;51.516;4.000;2023-08-01T03:36:12;1.97;;;1.53;;
6259;SDS011;3163;51.516;4.000;2023-08-01T03:38:38;2.30;;;1.77;;
6259;SDS011;3163;51.516;4.000;2023-08-01T03:41:04;2.07;;;1.33;;
6259;SDS011;3163;51.516;4.000;2023-08-01T03:43:30;3.83;;;1.70;;
6259;SDS011;3163;51.516;4.000;2023-08-01T03:45:55;4.97;;;1.60;;
6259;SDS011;3163;51.516;4.000;2023-08-01T03:48:21;1.70;;;1.40;;
6259;SDS011;3163;51.516;4.000;2023-08-01T03:50:47;2.67;;;1.53;;
6259;SDS011;3163;51.516;4.000;2023-08-01T03:53:13;1.87;;;1.50;;
6259;SDS011;3163;51.516;4.000;2023-08-01T03:55:38;2.70;;;1.73;;
6259;SDS011;3163;51.516;4.000;2023-08-01T03:58:04;2.00;;;1.50;;
6259;SDS011;3163;51.516;4.000;2023-08-01T04:00:30;1.77;;;1.37;;
6259;SDS011;3163;51.516;4.000;2023-08-01T04:03:00;3.40;;;1.90;;
6259;SDS011;3163;51.516;4.000;2023-08-01T04:05:26;3.43;;;1.53;;
6259;SDS011;3163;51.516;4.000;2023-08-01T04:07:52;3.87;;;1.53;;
6259;SDS011;3163;51.516;4.000;2023-08-01T04:10:21;2.53;;;1.57;;
6259;SDS011;3163;51.516;4.000;2023-08-01T04:12:47;3.67;;;2.07;;
6259;SDS011;3163;51.516;4.000;2023-08-01T04:15:13;4.67;;;1.70;;
6259;SDS011;3163;51.516;4.000;2023-08-01T04:17:39;4.93;;;1.90;;
6259;SDS011;3163;51.516;4.000;2023-08-01T04:20:04;2.50;;;1.50;;
6259;SDS011;3163;51.516;4.000;2023-08-01T04:22:31;3.73;;;1.87;;
6259;SDS011;3163;51.516;4.000;2023-08-01T04:24:56;3.67;;;1.57;;
6259;SDS011;3163;51.516;4.000;2023-08-01T04:27:22;1.53;;;1.30;;
6259;SDS011;3163;51.516;4.000;2023-08-01T04:29:48;4.07;;;1.53;;
6259;SDS011;3163;51.516;4.000;2023-08-01T04:32:14;2.53;;;1.60;;
6259;SDS011;3163;51.516;4.000;2023-08-01T04:34:40;2.33;;;1.50;;
6259;SDS011;3163;51.516;4.000;2023-08-01T04:37:06;1.90;;;1.30;;
6259;SDS011;3163;51.516;4.000;2023-08-01T04:39:32;1.80;;;1.40;;
6259;SDS011;3163;51.516;4.000;2023-08-01T04:41:58;2.87;;;1.90;;
6259;SDS011;3163;51.516;4.000;2023-08-01T04:44:24;6.10;;;1.90;;
6259;SDS011;3163;51.516;4.000;2023-08-01T04:46:49;2.17;;;1.60;;
6259;SDS011;3163;51.516;4.000;2023-08-01T04:49:15;2.37;;;1.70;;
6259;SDS011;3163;51.516;4.000;2023-08-01T04:51:41;4.47;;;1.77;;
6259;SDS011;3163;51.516;4.000;2023-08-01T04:54:06;4.23;;;1.40;;
6259;SDS011;3163;51.516;4.000;2023-08-01T04:56:32;2.50;;;1.43;;
6259;SDS011;3163;51.516;4.000;2023-08-01T04:58:57;1.83;;;1.57;;
6259;SDS011;3163;51.516;4.000;2023-08-01T05:01:23;3.45;;;1.73;;
6259;SDS011;3163;51.516;4.000;2023-08-01T05:03:49;2.97;;;1.60;;
6259;SDS011;3163;51.516;4.000;2023-08-01T05:06:14;3.33;;;1.40;;
6259;SDS011;3163;51.516;4.000;2023-08-01T05:08:40;2.30;;;1.40;;
6259;SDS011;3163;51.516;4.000;2023-08-01T05:11:05;4.25;;;1.90;;
6259;SDS011;3163;51.516;4.000;2023-08-01T05:13:31;2.80;;;1.70;;
6259;SDS011;3163;51.516;4.000;2023-08-01T05:15:57;4.97;;;1.80;;
6259;SDS011;3163;51.516;4.000;2023-08-01T05:18:22;2.30;;;1.50;;
6259;SDS011;3163;51.516;4.000;2023-08-01T05:20:48;1.67;;;1.50;;
6259;SDS011;3163;51.516;4.000;2023-08-01T05:23:14;4.30;;;1.70;;
6259;SDS011;3163;51.516;4.000;2023-08-01T05:25:39;3.60;;;1.60;;
6259;SDS011;3163;51.516;4.000;2023-08-01T05:28:05;3.60;;;1.83;;
6259;SDS011;3163;51.516;4.000;2023-08-01T05:30:30;2.25;;;1.50;;
6259;SDS011;3163;51.516;4.000;2023-08-01T05:32:56;3.93;;;1.77;;
6259;SDS011;3163;51.516;4.000;2023-08-01T05:35:22;4.53;;;1.87;;
6259;SDS011;3163;51.516;4.000;2023-08-01T05:37:47;3.50;;;1.30;;
6259;SDS011;3163;51.516;4.000;2023-08-01T05:40:13;2.67;;;1.60;;
6259;SDS011;3163;51.516;4.000;2023-08-01T05:42:39;3.17;;;1.67;;
6259;SDS011;3163;51.516;4.000;2023-08-01T05:45:04;2.03;;;1.20;;
6259;SDS011;3163;51.516;4.000;2023-08-01T05:47:30;2.63;;;1.67;;
6259;SDS011;3163;51.516;4.000;2023-08-01T05:49:56;4.83;;;1.80;;
6259;SDS011;3163;51.516;4.000;2023-08-01T05:52:22;1.77;;;1.47;;
6259;SDS011;3163;51.516;4.000;2023-08-01T05:54:47;3.70;;;1.70;;
6259;SDS011;3163;51.516;4.000;2023-08-01T05:57:13;2.83;;;1.80;;
6259;SDS011;3163;51.516;4.000;2023-08-01T05:59:39;2.53;;;1.50;;
6259;SDS011;3163;51.516;4.000;2023-08-01T06:02:05;2.55;;;1.60;;
6259;SDS011;3163;51.516;4.000;2023-08-01T06:04:31;1.77;;;1.42;;
6259;SDS011;3163;51.516;4.000;2023-08-01T06:06:56;3.43;;;1.50;;
6259;SDS011;3163;51.516;4.000;2023-08-01T06:09:22;4.00;;;1.30;;
6259;SDS011;3163;51.516;4.000;2023-08-01T06:11:48;3.07;;;1.60;;
6259;SDS011;3163;51.516;4.000;2023-08-01T06:14:13;4.60;;;1.87;;
6259;SDS011;3163;51.516;4.000;2023-08-01T06:16:39;2.43;;;1.60;;
6259;SDS011;3163;51.516;4.000;2023-08-01T06:19:04;4.18;;;1.50;;
6259;SDS011;3163;51.516;4.000;2023-08-01T06:21:30;2.87;;;1.87;;
6259;SDS011;3163;51.516;4.000;2023-08-01T06:23:56;4.63;;;1.67;;
6259;SDS011;3163;51.516;4.000;2023-08-01T06:26:21;3.50;;;1.70;;
6259;SDS011;3163;51.516;4.000;2023-08-01T06:28:47;2.77;;;1.37;;
6259;SDS011;3163;51.516;4.000;2023-08-01T06:31:12;4.53;;;2.10;;
6259;SDS011;3163;51.516;4.000;2023-08-01T06:33:38;1.53;;;1.40;;
6259;SDS011;3163;51.516;4.000;2023-08-01T06:36:04;2.93;;;1.50;;
6259;SDS011;3163;51.516;4.000;2023-08-01T06:38:30;2.73;;;1.77;;
6259;SDS011;3163;51.516;4.000;2023-08-01T06:40:56;2.27;;;1.40;;
6259;SDS011;3163;51.516;4.000;2023-08-01T06:43:21;2.22;;;1.35;;
6259;SDS011;3163;51.516;4.000;2023-08-01T06:45:49;1.90;;;1.73;;
6259;SDS011;3163;51.516;4.000;2023-08-01T06:48:15;2.28;;;1.52;;
6259;SDS011;3163;51.516;4.000;2023-08-01T06:50:41;4.05;;;1.40;;
6259;SDS011;3163;51.516;4.000;2023-08-01T06:53:06;1.83;;;1.33;;
6259;SDS011;3163;51.516;4.000;2023-08-01T06:55:33;4.47;;;1.63;;
6259;SDS011;3163;51.516;4.000;2023-08-01T06:57:59;4.50;;;1.60;;
6259;SDS011;3163;51.516;4.000;2023-08-01T07:00:24;4.07;;;1.45;;
6259;SDS011;3163;51.516;4.000;2023-08-01T07:02:50;3.13;;;1.43;;
6259;SDS011;3163;51.516;4.000;2023-08-01T07:05:16;5.68;;;1.45;;
6259;SDS011;3163;51.516;4.000;2023-08-01T07:07:41;4.03;;;1.75;;
6259;SDS011;3163;51.516;4.000;2023-08-01T07:10:07;3.37;;;1.60;;
6259;SDS011;3163;51.516;4.000;2023-08-01T07:12:33;3.65;;;1.90;;
6259;SDS011;3163;51.516;4.000;2023-08-01T07:14:58;2.63;;;1.57;;
6259;SDS011;3163;51.516;4.000;2023-08-01T07:17:24;2.58;;;1.27;;
6259;SDS011;3163;51.516;4.000;2023-08-01T07:19:50;4.13;;;1.40;;
6259;SDS011;3163;51.516;4.000;2023-08-01T07:22:15;1.33;;;1.23;;
6259;SDS011;3163;51.516;4.000;2023-08-01T07:24:41;4.55;;;1.70;;
6259;SDS011;3163;51.516;4.000;2023-08-01T07:27:06;4.28;;;1.30;;
6259;SDS011;3163;51.516;4.000;2023-08-01T07:29:32;3.67;;;1.90;;
6259;SDS011;3163;51.516;4.000;2023-08-01T07:31:58;5.55;;;2.03;;
6259;SDS011;3163;51.516;4.000;2023-08-01T07:34:23;1.90;;;1.45;;
6259;SDS011;3163;51.516;4.000;2023-08-01T07:36:49;3.47;;;1.25;;
6259;SDS011;3163;51.516;4.000;2023-08-01T07:39:15;1.50;;;1.00;;
6259;SDS011;3163;51.516;4.000;2023-08-01T07:41:41;4.57;;;1.77;;
6259;SDS011;3163;51.516;4.000;2023-08-01T07:44:07;6.78;;;1.42;;
6259;SDS011;3163;51.516;4.000;2023-08-01T07:46:32;3.65;;;1.27;;
6259;SDS011;3163;51.516;4.000;2023-08-01T07:48:58;3.40;;;1.60;;
6259;SDS011;3163;51.516;4.000;2023-08-01T07:51:26;2.97;;;1.63;;
6259;SDS011;3163;51.516;4.000;2023-08-01T07:53:53;2.50;;;1.42;;
6259;SDS011;3163;51.516;4.000;2023-08-01T07:56:19;2.08;;;1.52;;
6259;SDS011;3163;51.516;4.000;2023-08-01T07:58:45;5.32;;;1.55;;
6259;SDS011;3163;51.516;4.000;2023-08-01T08:01:11;3.72;;;1.65;;
6259;SDS011;3163;51.516;4.000;2023-08-01T08:03:36;1.98;;;1.45;;
6259;SDS011;3163;51.516;4.000;2023-08-01T08:06:02;4.00;;;1.40;;
6259;SDS011;3163;51.516;4.000;2023-08-01T08:08:29;1.65;;;1.30;;
6259;SDS011;3163;51.516;4.000;2023-08-01T08:10:55;3.47;;;1.25;;
6259;SDS011;3163;51.516;4.000;2023-08-01T08:13:20;1.70;;;0.90;;
6259;SDS011;3163;51.516;4.000;2023-08-01T08:15:46;3.17;;;1.65;;
6259;SDS011;3163;51.516;4.000;2023-08-01T08:18:12;3.47;;;1.45;;
6259;SDS011;3163;51.516;4.000;2023-08-01T08:20:44;5.75;;;1.33;;
6259;SDS011;3163;51.516;4.000;2023-08-01T08:23:11;2.97;;;1.30;;
6259;SDS011;3163;51.516;4.000;2023-08-01T08:25:40;2.42;;;1.50;;
6259;SDS011;3163;51.516;4.000;2023-08-01T08:28:11;4.15;;;1.17;;
6259;SDS011;3163;51.516;4.000;2023-08-01T08:30:38;3.65;;;1.20;;
6259;SDS011;3163;51.516;4.000;2023-08-01T08:33:03;2.08;;;1.60;;
6259;SDS011;3163;51.516;4.000;2023-08-01T08:35:31;3.42;;;1.45;;
6259;SDS011;3163;51.516;4.000;2023-08-01T08:37:59;4.43;;;1.55;;
6259;SDS011;3163;51.516;4.000;2023-08-01T08:40:26;4.93;;;1.42;;
6259;SDS011;3163;51.516;4.000;2023-08-01T08:42:52;5.32;;;0.93;;
6259;SDS011;3163;51.516;4.000;2023-08-01T08:45:19;2.58;;;1.13;;
6259;SDS011;3163;51.516;4.000;2023-08-01T08:47:46;3.17;;;1.48;;
6259;SDS011;3163;51.516;4.000;2023-08-01T08:50:18;2.05;;;1.35;;
6259;SDS011;3163;51.516;4.000;2023-08-01T08:52:44;4.10;;;1.58;;
6259;SDS011;3163;51.516;4.000;2023-08-01T08:55:10;2.08;;;1.13;;
6259;SDS011;3163;51.516;4.000;2023-08-01T08:57:36;3.45;;;1.20;;
6259;SDS011;3163;51.516;4.000;2023-08-01T09:00:04;1.13;;;0.68;;
6259;SDS011;3163;51.516;4.000;2023-08-01T09:02:32;5.28;;;1.70;;
6259;SDS011;3163;51.516;4.000;2023-08-01T09:04:58;2.88;;;1.10;;
6259;SDS011;3163;51.516;4.000;2023-08-01T09:07:24;3.03;;;1.00;;
6259;SDS011;3163;51.516;4.000;2023-08-01T09:09:54;3.45;;;1.30;;
6259;SDS011;3163;51.516;4.000;2023-08-01T09:12:20;2.75;;;1.25;;
6259;SDS011;3163;51.516;4.000;2023-08-01T09:14:47;1.23;;;0.90;;
6259;SDS011;3163;51.516;4.000;2023-08-01T09:17:15;3.67;;;1.50;;
6259;SDS011;3163;51.516;4.000;2023-08-01T09:19:43;2.80;;;1.40;;
6259;SDS011;3163;51.516;4.000;2023-08-01T09:22:12;5.78;;;1.45;;
6259;SDS011;3163;51.516;4.000;2023-08-01T09:24:39;3.00;;;1.48;;
6259;SDS011;3163;51.516;4.000;2023-08-01T09:27:15;2.88;;;1.23;;
6259;SDS011;3163;51.516;4.000;2023-08-01T09:29:41;4.93;;;1.45;;
6259;SDS011;3163;51.516;4.000;2023-08-01T09:32:13;3.38;;;1.30;;
6259;SDS011;3163;51.516;4.000;2023-08-01T09:34:40;4.28;;;1.30;;
6259;SDS011;3163;51.516;4.000;2023-08-01T09:37:07;2.22;;;1.35;;
6259;SDS011;3163;51.516;4.000;2023-08-01T09:39:33;4.32;;;1.75;;
6259;SDS011;3163;51.516;4.000;2023-08-01T09:41:59;2.75;;;1.60;;
6259;SDS011;3163;51.516;4.000;2023-08-01T09:44:26;3.63;;;1.30;;
6259;SDS011;3163;51.516;4.000;2023-08-01T09:47:00;3.53;;;1.25;;
6259;SDS011;3163;51.516;4.000;2023-08-01T09:49:31;3.22;;;1.25;;
6259;SDS011;3163;51.516;4.000;2023-08-01T09:51:57;1.80;;;1.10;;
6259;SDS011;3163;51.516;4.000;2023-08-01T09:54:23;1.92;;;1.20;;
6259;SDS011;3163;51.516;4.000;2023-08-01T09:56:50;1.00;;;0.93;;
6259;SDS011;3163;51.516;4.000;2023-08-01T10:01:48;1.48;;;1.38;;
6259;SDS011;3163;51.516;4.000;2023-08-01T10:04:21;2.85;;;1.65;;
6259;SDS011;3163;51.516;4.000;2023-08-01T10:07:13;1.48;;;0.93;;
6259;SDS011;3163;51.516;4.000;2023-08-01T10:09:38;2.58;;;0.98;;
6259;SDS011;3163;51.516;4.000;2023-08-01T10:12:06;3.40;;;1.20;;
6259;SDS011;3163;51.516;4.000;2023-08-01T10:14:32;2.13;;;1.08;;
6259;SDS011;3163;51.516;4.000;2023-08-01T10:16:58;2.60;;;1.40;;
6259;SDS011;3163;51.516;4.000;2023-08-01T10:19:24;2.03;;;1.15;;
6259;SDS011;3163;51.516;4.000;2023-08-01T10:21:51;2.50;;;1.08;;
6259;SDS011;3163;51.516;4.000;2023-08-01T10:24:18;2.00;;;1.10;;
6259;SDS011;3163;51.516;4.000;2023-08-01T10:26:44;2.13;;;0.73;;
6259;SDS011;3163;51.516;4.000;2023-08-01T10:29:11;4.55;;;1.23;;
6259;SDS011;3163;51.516;4.000;2023-08-01T10:31:37;3.78;;;1.10;;
6259;SDS011;3163;51.516;4.000;2023-08-01T10:34:03;4.20;;;1.67;;
6259;SDS011;3163;51.516;4.000;2023-08-01T10:36:31;3.40;;;1.25;;
6259;SDS011;3163;51.516;4.000;2023-08-01T10:38:58;4.80;;;1.45;;
6259;SDS011;3163;51.516;4.000;2023-08-01T10:41:26;2.78;;;1.08;;
6259;SDS011;3163;51.516;4.000;2023-08-01T10:49:18;2.40;;;0.98;;
6259;SDS011;3163;51.516;4.000;2023-08-01T10:51:59;3.65;;;1.25;;
6259;SDS011;3163;51.516;4.000;2023-08-01T10:54:25;2.65;;;1.00;;
6259;SDS011;3163;51.516;4.000;2023-08-01T10:56:52;4.25;;;1.13;;
6259;SDS011;3163;51.516;4.000;2023-08-01T10:59:21;2.45;;;0.70;;
6259;SDS011;3163;51.516;4.000;2023-08-01T11:01:50;2.40;;;1.25;;
6259;SDS011;3163;51.516;4.000;2023-08-01T11:04:21;2.28;;;1.20;;
6259;SDS011;3163;51.516;4.000;2023-08-01T11:06:53;1.60;;;0.88;;
6259;SDS011;3163;51.516;4.000;2023-08-01T11:09:24;1.17;;;1.08;;
6259;SDS011;3163;51.516;4.000;2023-08-01T11:11:54;1.75;;;1.00;;
6259;SDS011;3163;51.516;4.000;2023-08-01T11:14:22;2.08;;;0.93;;
6259;SDS011;3163;51.516;4.000;2023-08-01T11:16:49;3.75;;;1.15;;
6259;SDS011;3163;51.516;4.000;2023-08-01T11:19:19;3.40;;;1.27;;
6259;SDS011;3163;51.516;4.000;2023-08-01T11:21:45;4.10;;;1.75;;
6259;SDS011;3163;51.516;4.000;2023-08-01T11:24:11;9.23;;;2.38;;
6259;SDS011;3163;51.516;4.000;2023-08-01T11:26:43;4.35;;;1.50;;
6259;SDS011;3163;51.516;4.000;2023-08-01T11:29:11;4.78;;;1.25;;
6259;SDS011;3163;51.516;4.000;2023-08-01T11:31:37;3.13;;;1.20;;
6259;SDS011;3163;51.516;4.000;2023-08-01T11:34:03;5.63;;;1.70;;
6259;SDS011;3163;51.516;4.000;2023-08-01T11:36:30;5.90;;;1.63;;
6259;SDS011;3163;51.516;4.000;2023-08-01T11:38:57;6.13;;;1.42;;
6259;SDS011;3163;51.516;4.000;2023-08-01T11:41:24;2.50;;;1.52;;
6259;SDS011;3163;51.516;4.000;2023-08-01T11:43:53;3.25;;;1.42;;
6259;SDS011;3163;51.516;4.000;2023-08-01T11:46:22;4.03;;;1.63;;
6259;SDS011;3163;51.516;4.000;2023-08-01T11:48:48;2.15;;;1.40;;
6259;SDS011;3163;51.516;4.000;2023-08-01T11:51:16;3.45;;;0.98;;
6259;SDS011;3163;51.516;4.000;2023-08-01T11:53:42;1.92;;;1.50;;
6259;SDS011;3163;51.516;4.000;2023-08-01T11:56:08;5.10;;;1.50;;
6259;SDS011;3163;51.516;4.000;2023-08-01T11:58:37;4.03;;;1.60;;
6259;SDS011;3163;51.516;4.000;2023-08-01T12:01:10;3.25;;;1.33;;
6259;SDS011;3163;51.516;4.000;2023-08-01T12:03:49;2.92;;;1.15;;
6259;SDS011;3163;51.516;4.000;2023-08-01T12:06:17;3.43;;;1.47;;
6259;SDS011;3163;51.516;4.000;2023-08-01T12:08:45;2.00;;;1.30;;
6259;SDS011;3163;51.516;4.000;2023-08-01T12:13:44;2.75;;;1.05;;
6259;SDS011;3163;51.516;4.000;2023-08-01T12:16:10;2.42;;;1.20;;
6259;SDS011;3163;51.516;4.000;2023-08-01T12:18:38;2.53;;;1.05;;
6259;SDS011;3163;51.516;4.000;2023-08-01T12:21:04;2.08;;;1.20;;
6259;SDS011;3163;51.516;4.000;2023-08-01T12:23:30;3.33;;;1.27;;
6259;SDS011;3163;51.516;4.000;2023-08-01T12:25:56;2.80;;;1.10;;
6259;SDS011;3163;51.516;4.000;2023-08-01T12:28:22;3.03;;;0.88;;
6259;SDS011;3163;51.516;4.000;2023-08-01T12:30:47;4.05;;;1.10;;
6259;SDS011;3163;51.516;4.000;2023-08-01T12:33:14;2.55;;;1.17;;
6259;SDS011;3163;51.516;4.000;2023-08-01T12:35:40;1.52;;;1.20;;
6259;SDS011;3163;51.516;4.000;2023-08-01T12:38:07;1.73;;;0.90;;
6259;SDS011;3163;51.516;4.000;2023-08-01T12:40:33;1.33;;;1.10;;
6259;SDS011;3163;51.516;4.000;2023-08-01T12:42:58;2.90;;;0.90;;
6259;SDS011;3163;51.516;4.000;2023-08-01T12:45:24;2.88;;;1.00;;
6259;SDS011;3163;51.516;4.000;2023-08-01T12:47:50;1.85;;;0.80;;
6259;SDS011;3163;51.516;4.000;2023-08-01T12:50:16;1.20;;;0.65;;
6259;SDS011;3163;51.516;4.000;2023-08-01T12:52:42;4.20;;;1.35;;
6259;SDS011;3163;51.516;4.000;2023-08-01T12:55:07;1.45;;;1.00;;
6259;SDS011;3163;51.516;4.000;2023-08-01T12:57:33;1.25;;;0.70;;
6259;SDS011;3163;51.516;4.000;2023-08-01T12:59:59;2.65;;;1.02;;
6259;SDS011;3163;51.516;4.000;2023-08-01T13:02:26;4.43;;;0.95;;
6259;SDS011;3163;51.516;4.000;2023-08-01T13:04:52;1.48;;;0.73;;
6259;SDS011;3163;51.516;4.000;2023-08-01T13:07:18;0.80;;;0.80;;
6259;SDS011;3163;51.516;4.000;2023-08-01T13:09:43;1.33;;;0.88;;
6259;SDS011;3163;51.516;4.000;2023-08-01T13:12:09;3.17;;;1.08;;
6259;SDS011;3163;51.516;4.000;2023-08-01T13:14:35;2.42;;;0.70;;
6259;SDS011;3163;51.516;4.000;2023-08-01T13:17:00;2.08;;;0.70;;
6259;SDS011;3163;51.516;4.000;2023-08-01T13:19:26;1.27;;;0.60;;
6259;SDS011;3163;51.516;4.000;2023-08-01T13:21:52;1.08;;;0.57;;
6259;SDS011;3163;51.516;4.000;2023-08-01T13:24:18;1.65;;;0.70;;
6259;SDS011;3163;51.516;4.000;2023-08-01T13:26:43;0.65;;;0.65;;
6259;SDS011;3163;51.516;4.000;2023-08-01T13:29:09;2.57;;;1.10;;
6259;SDS011;3163;51.516;4.000;2023-08-01T13:31:34;0.95;;;0.80;;
6259;SDS011;3163;51.516;4.000;2023-08-01T13:34:00;1.98;;;1.20;;
6259;SDS011;3163;51.516;4.000;2023-08-01T13:36:25;1.17;;;0.95;;
6259;SDS011;3163;51.516;4.000;2023-08-01T13:38:51;2.92;;;0.85;;
6259;SDS011;3163;51.516;4.000;2023-08-01T13:41:17;4.75;;;1.00;;
6259;SDS011;3163;51.516;4.000;2023-08-01T13:43:42;1.42;;;0.90;;
6259;SDS011;3163;51.516;4.000;2023-08-01T13:46:26;1.75;;;1.00;;
6259;SDS011;3163;51.516;4.000;2023-08-01T13:48:51;3.30;;;1.13;;
6259;SDS011;3163;51.516;4.000;2023-08-01T13:51:17;0.68;;;0.65;;
6259;SDS011;3163;51.516;4.000;2023-08-01T13:53:43;1.15;;;1.02;;
6259;SDS011;3163;51.516;4.000;2023-08-01T13:56:12;3.63;;;0.95;;
6259;SDS011;3163;51.516;4.000;2023-08-01T13:58:38;4.40;;;1.20;;
6259;SDS011;3163;51.516;4.000;2023-08-01T14:01:05;0.85;;;0.60;;
6259;SDS011;3163;51.516;4.000;2023-08-01T14:03:35;1.85;;;0.85;;
6259;SDS011;3163;51.516;4.000;2023-08-01T14:06:05;0.65;;;0.65;;
6259;SDS011;3163;51.516;4.000;2023-08-01T14:08:35;2.30;;;0.80;;
6259;SDS011;3163;51.516;4.000;2023-08-01T14:11:04;2.13;;;0.88;;
6259;SDS011;3163;51.516;4.000;2023-08-01T14:13:31;1.17;;;0.85;;
6259;SDS011;3163;51.516;4.000;2023-08-01T14:15:57;1.45;;;1.00;;
6259;SDS011;3163;51.516;4.000;2023-08-01T14:18:23;0.70;;;0.70;;
6259;SDS011;3163;51.516;4.000;2023-08-01T14:20:49;1.48;;;0.70;;
6259;SDS011;3163;51.516;4.000;2023-08-01T14:23:14;1.13;;;0.73;;
6259;SDS011;3163;51.516;4.000;2023-08-01T14:25:40;0.60;;;0.60;;
6259;SDS011;3163;51.516;4.000;2023-08-01T14:28:06;1.17;;;0.90;;
6259;SDS011;3163;51.516;4.000;2023-08-01T14:30:33;1.75;;;1.00;;
6259;SDS011;3163;51.516;4.000;2023-08-01T14:33:02;0.70;;;0.65;;
6259;SDS011;3163;51.516;4.000;2023-08-01T14:35:29;1.70;;;0.70;;
6259;SDS011;3163;51.516;4.000;2023-08-01T14:37:54;2.45;;;0.73;;
6259;SDS011;3163;51.516;4.000;2023-08-01T14:40:21;0.80;;;0.80;;
6259;SDS011;3163;51.516;4.000;2023-08-01T14:42:47;1.30;;;0.88;;
6259;SDS011;3163;51.516;4.000;2023-08-01T14:45:12;1.75;;;0.80;;
6259;SDS011;3163;51.516;4.000;2023-08-01T14:47:39;1.90;;;0.77;;
6259;SDS011;3163;51.516;4.000;2023-08-01T14:50:11;2.38;;;0.70;;
6259;SDS011;3163;51.516;4.000;2023-08-01T14:52:38;1.20;;;0.60;;
6259;SDS011;3163;51.516;4.000;2023-08-01T14:55:04;1.70;;;1.08;;
6259;SDS011;3163;51.516;4.000;2023-08-01T14:57:30;0.85;;;0.68;;
6259;SDS011;3163;51.516;4.000;2023-08-01T14:59:55;1.67;;;0.90;;
6259;SDS011;3163;51.516;4.000;2023-08-01T15:02:21;0.70;;;0.70;;
6259;SDS011;3163;51.516;4.000;2023-08-01T15:04:53;0.75;;;0.70;;
6259;SDS011;3163;51.516;4.000;2023-08-01T15:07:23;2.28;;;0.90;;
6259;SDS011;3163;51.516;4.000;2023-08-01T15:09:50;2.08;;;1.00;;
6259;SDS011;3163;51.516;4.000;2023-08-01T15:12:16;2.90;;;0.60;;
6259;SDS011;3163;51.516;4.000;2023-08-01T15:14:48;1.75;;;0.90;;
6259;SDS011;3163;51.516;4.000;2023-08-01T15:17:17;2.65;;;0.70;;
6259;SDS011;3163;51.516;4.000;2023-08-01T15:19:43;2.83;;;0.88;;
6259;SDS011;3163;51.516;4.000;2023-08-01T15:22:09;2.78;;;0.90;;